createdAt,value
2019-05-19T00:01:01.029Z,13.70
2019-05-19T00:03:30.054Z,13.80
2019-05-19T00:05:59.105Z,13.70
2019-05-19T00:08:28.100Z,13.70
2019-05-19T00:10:57.083Z,13.50
2019-05-19T00:13:26.012Z,13.30
2019-05-19T00:15:54.895Z,13.30
2019-05-19T00:18:24.005Z,13.40
2019-05-19T00:20:53.048Z,13.50
2019-05-19T00:23:22.084Z,13.40
2019-05-19T00:25:51.097Z,13.40
2019-05-19T00:28:20.027Z,13.50
2019-05-19T00:30:48.993Z,13.40
2019-05-19T00:33:18.026Z,13.50
2019-05-19T00:35:47.171Z,13.40
2019-05-19T00:38:16.206Z,13.40
2019-05-19T00:40:45.304Z,13.60
2019-05-19T00:43:14.603Z,13.80
2019-05-19T00:45:43.559Z,13.80
2019-05-19T00:48:12.592Z,13.70
2019-05-19T00:50:41.634Z,13.80
2019-05-19T00:53:10.449Z,13.70
2019-05-19T00:55:39.512Z,13.60
2019-05-19T00:58:08.333Z,13.60
2019-05-19T01:00:37.329Z,13.60
2019-05-19T01:03:06.486Z,13.30
2019-05-19T01:05:35.448Z,13.30
2019-05-19T01:08:04.404Z,13.30
2019-05-19T01:10:33.388Z,13.20
2019-05-19T01:13:02.503Z,13.20
2019-05-19T01:15:31.568Z,13.20
2019-05-19T01:18:00.529Z,13.30
2019-05-19T01:20:29.532Z,13.40
2019-05-19T01:22:58.523Z,13.50
2019-05-19T01:25:27.479Z,13.50
2019-05-19T01:27:56.477Z,13.30
2019-05-19T01:30:25.358Z,13.20
2019-05-19T01:32:54.537Z,13.20
2019-05-19T01:35:23.422Z,13.20
2019-05-19T01:37:52.421Z,13.30
2019-05-19T01:40:21.297Z,13.30
2019-05-19T01:42:50.305Z,13.20
2019-05-19T01:45:19.266Z,13.10
2019-05-19T01:47:48.174Z,13.10
2019-05-19T01:50:18.424Z,13.10
2019-05-19T01:52:47.856Z,13.20
2019-05-19T01:55:16.758Z,13.20
2019-05-19T01:57:45.637Z,13.30
2019-05-19T02:00:14.586Z,13.50
2019-05-19T02:02:43.779Z,13.60
2019-05-19T02:05:12.715Z,13.40
2019-05-19T02:07:41.758Z,13.20
2019-05-19T02:10:10.907Z,13.10
2019-05-19T02:12:39.854Z,13.10
2019-05-19T02:15:08.865Z,13.10
2019-05-19T02:17:37.797Z,13.10
2019-05-19T02:20:06.958Z,13.20
2019-05-19T02:22:36.067Z,13.10
2019-05-19T02:25:05.498Z,13.10
2019-05-19T02:27:34.581Z,13.20
2019-05-19T02:30:03.963Z,13.40
2019-05-19T02:32:32.869Z,13.50
2019-05-19T02:35:01.907Z,13.50
2019-05-19T02:37:30.817Z,13.60
2019-05-19T02:39:59.742Z,13.60
2019-05-19T02:42:29.083Z,13.60
2019-05-19T02:44:58.470Z,13.40
2019-05-19T02:47:27.426Z,13.30
2019-05-19T02:49:56.510Z,13.20
2019-05-19T02:52:26.101Z,13.10
2019-05-19T02:54:55.576Z,13.10
2019-05-19T02:57:24.544Z,13.10
2019-05-19T02:59:53.520Z,13.20
2019-05-19T03:02:22.712Z,13.30
2019-05-19T03:04:51.785Z,13.40
2019-05-19T03:07:20.742Z,13.50
2019-05-19T03:09:49.990Z,13.60
2019-05-19T03:12:19.048Z,13.50
2019-05-19T03:14:47.963Z,13.50
2019-05-19T03:17:16.985Z,13.40
2019-05-19T03:19:45.972Z,13.40
2019-05-19T03:22:14.925Z,13.40
2019-05-19T03:24:43.906Z,13.40
2019-05-19T03:27:13.046Z,13.40
2019-05-19T03:29:46.733Z,13.30
2019-05-19T03:32:33.786Z,13.30
2019-05-19T03:35:03.106Z,13.20
2019-05-19T03:37:31.965Z,13.20
2019-05-19T03:40:02.487Z,13.20
2019-05-19T03:42:31.545Z,13.20
2019-05-19T03:45:00.657Z,13.20
2019-05-19T03:47:29.556Z,13.20
2019-05-19T03:49:58.550Z,13.20
2019-05-19T03:52:27.546Z,13.20
2019-05-19T03:54:56.550Z,13.20
2019-05-19T03:57:25.430Z,13.20
2019-05-19T03:59:54.462Z,13.20
2019-05-19T04:02:23.608Z,13.20
2019-05-19T04:04:52.734Z,13.20
2019-05-19T04:07:21.665Z,13.20
2019-05-19T04:09:50.625Z,13.20
2019-05-19T04:12:19.513Z,13.30
2019-05-19T04:14:48.589Z,13.30
2019-05-19T04:17:17.476Z,13.30
2019-05-19T04:19:46.426Z,13.40
2019-05-19T04:22:15.506Z,13.30
2019-05-19T04:24:45.261Z,13.30
2019-05-19T04:27:14.205Z,13.40
2019-05-19T04:29:43.325Z,13.40
2019-05-19T04:32:12.194Z,13.40
2019-05-19T04:34:41.304Z,13.50
2019-05-19T04:37:10.287Z,13.50
2019-05-19T04:39:39.168Z,13.50
2019-05-19T04:42:08.357Z,13.50
2019-05-19T04:44:37.314Z,13.50
2019-05-19T04:47:06.393Z,13.50
2019-05-19T04:49:35.317Z,13.70
2019-05-19T04:52:07.165Z,13.60
2019-05-19T04:54:34.852Z,13.70
2019-05-19T04:57:03.886Z,13.80
2019-05-19T04:59:34.502Z,13.70
2019-05-19T05:02:03.389Z,13.60
2019-05-19T05:04:32.480Z,13.60
2019-05-19T05:07:01.461Z,13.60
2019-05-19T05:09:30.378Z,13.70
2019-05-19T05:11:59.283Z,13.70
2019-05-19T05:14:28.251Z,13.70
2019-05-19T05:16:57.217Z,13.80
2019-05-19T05:19:26.194Z,13.80
2019-05-19T05:21:55.163Z,13.80
2019-05-19T05:24:24.330Z,14.00
2019-05-19T05:26:53.302Z,13.90
2019-05-19T05:29:22.425Z,14.00
2019-05-19T05:31:51.400Z,13.90
2019-05-19T05:34:20.386Z,14.00
2019-05-19T05:36:49.328Z,14.20
2019-05-19T05:39:18.287Z,14.20
2019-05-19T05:41:47.366Z,14.40
2019-05-19T05:44:16.492Z,14.40
2019-05-19T05:46:45.420Z,14.30
2019-05-19T05:49:14.246Z,14.20
2019-05-19T05:51:43.185Z,14.20
2019-05-19T05:54:12.182Z,14.10
2019-05-19T05:56:41.216Z,14.10
2019-05-19T05:59:10.096Z,14.20
2019-05-19T06:01:39.187Z,14.20
2019-05-19T06:04:08.228Z,14.20
2019-05-19T06:06:37.301Z,14.20
2019-05-19T06:09:06.823Z,14.20
2019-05-19T06:11:35.804Z,14.20
2019-05-19T06:14:04.875Z,14.20
2019-05-19T06:16:33.774Z,14.60
2019-05-19T06:19:02.982Z,14.60
2019-05-19T06:21:31.927Z,14.70
2019-05-19T06:24:00.964Z,14.60
2019-05-19T06:26:29.885Z,14.50
2019-05-19T06:28:58.973Z,14.50
2019-05-19T06:31:28.018Z,14.30
2019-05-19T06:33:56.990Z,14.30
2019-05-19T06:36:25.949Z,14.40
2019-05-19T06:38:55.124Z,14.50
2019-05-19T06:41:24.168Z,14.60
2019-05-19T06:43:53.161Z,14.60
2019-05-19T06:46:22.344Z,14.40
2019-05-19T06:48:51.261Z,14.50
2019-05-19T06:51:20.225Z,14.50
2019-05-19T06:53:49.309Z,14.70
2019-05-19T06:56:18.376Z,14.70
2019-05-19T06:58:47.469Z,14.90
2019-05-19T07:01:16.370Z,15.20
2019-05-19T07:03:45.424Z,15.10
2019-05-19T07:06:14.453Z,14.80
2019-05-19T07:08:43.383Z,14.80
2019-05-19T07:11:12.460Z,14.80
2019-05-19T07:13:41.515Z,14.80
2019-05-19T07:16:10.572Z,14.70
2019-05-19T07:18:39.555Z,14.70
2019-05-19T07:21:09.021Z,14.80
2019-05-19T07:23:37.965Z,15.00
2019-05-19T07:26:06.936Z,15.30
2019-05-19T07:28:36.053Z,15.30
2019-05-19T07:31:05.072Z,15.10
2019-05-19T07:33:34.186Z,15.00
2019-05-19T07:36:03.288Z,15.30
2019-05-19T07:38:32.309Z,15.40
2019-05-19T07:41:01.272Z,15.20
2019-05-19T07:43:30.197Z,15.00
2019-05-19T07:45:59.393Z,15.10
2019-05-19T07:48:28.515Z,15.00
2019-05-19T07:50:57.826Z,15.20
2019-05-19T07:53:26.783Z,15.50
2019-05-19T07:55:55.955Z,15.60
2019-05-19T07:58:24.919Z,15.70
2019-05-19T08:00:53.989Z,16.00
2019-05-19T08:03:23.090Z,15.70
2019-05-19T08:05:52.084Z,15.50
2019-05-19T08:08:21.055Z,15.60
2019-05-19T08:10:50.165Z,15.40
2019-05-19T08:13:19.073Z,15.50
2019-05-19T08:15:48.161Z,15.40
2019-05-19T08:18:17.187Z,15.60
2019-05-19T08:20:46.141Z,15.50
2019-05-19T08:23:15.101Z,15.80
2019-05-19T08:25:44.177Z,15.90
2019-05-19T08:28:13.075Z,15.80
2019-05-19T08:30:42.144Z,16.10
2019-05-19T08:33:11.220Z,16.80
2019-05-19T08:35:40.262Z,17.60
2019-05-19T08:38:09.327Z,18.00
2019-05-19T08:40:38.277Z,17.60
2019-05-19T08:43:07.246Z,17.70
2019-05-19T08:45:36.370Z,17.90
2019-05-19T08:48:05.431Z,18.40
2019-05-19T08:50:34.455Z,17.90
2019-05-19T08:53:03.584Z,19.10
2019-05-19T08:55:32.772Z,18.70
2019-05-19T08:58:01.823Z,18.20
2019-05-19T09:00:34.263Z,18.00
2019-05-19T09:03:02.147Z,18.20
2019-05-19T09:05:31.355Z,18.50
2019-05-19T09:08:00.340Z,19.20
2019-05-19T09:10:29.436Z,18.60
2019-05-19T09:13:17.613Z,17.60
2019-05-19T09:15:46.580Z,17.30
2019-05-19T09:18:15.793Z,17.00
2019-05-19T09:20:44.789Z,18.10
2019-05-19T09:23:13.775Z,18.00
2019-05-19T09:25:42.801Z,18.30
2019-05-19T09:28:11.863Z,19.60
2019-05-19T09:30:40.900Z,18.60
2019-05-19T09:33:09.982Z,18.00
2019-05-19T09:35:38.937Z,18.40
2019-05-19T09:38:07.954Z,18.30
2019-05-19T09:40:37.125Z,18.30
2019-05-19T09:43:06.184Z,18.20
2019-05-19T09:45:35.021Z,17.80
2019-05-19T09:48:04.051Z,17.90
2019-05-19T09:50:33.053Z,18.00
2019-05-19T09:53:01.943Z,18.00
2019-05-19T09:55:31.080Z,19.30
2019-05-19T09:58:00.108Z,18.10
2019-05-19T10:00:29.541Z,17.80
2019-05-19T10:02:58.594Z,17.70
2019-05-19T10:05:27.557Z,17.90
2019-05-19T10:07:56.542Z,18.40
2019-05-19T10:10:58.768Z,19.70
2019-05-19T10:13:27.853Z,20.70
2019-05-19T10:15:58.268Z,20.20
2019-05-19T10:18:27.249Z,19.20
2019-05-19T10:20:56.141Z,19.00
2019-05-19T10:23:25.171Z,19.00
2019-05-19T10:25:54.237Z,19.30
2019-05-19T10:28:23.385Z,18.90
2019-05-19T10:30:52.489Z,18.50
2019-05-19T10:33:23.009Z,18.30
2019-05-19T10:35:51.992Z,18.90
2019-05-19T10:38:21.007Z,20.00
2019-05-19T10:40:49.914Z,20.60
2019-05-19T10:43:18.881Z,20.90
2019-05-19T10:45:59.594Z,20.30
2019-05-19T10:48:28.918Z,20.00
2019-05-19T10:50:58.011Z,19.70
2019-05-19T10:53:27.040Z,19.60
2019-05-19T10:55:56.072Z,20.80
2019-05-19T10:58:26.356Z,21.40
2019-05-19T11:00:55.377Z,21.70
2019-05-19T11:03:24.439Z,20.60
2019-05-19T11:05:53.821Z,21.30
2019-05-19T11:08:22.875Z,21.40
2019-05-19T11:10:51.919Z,20.80
2019-05-19T11:13:20.974Z,21.30
2019-05-19T11:15:50.087Z,22.80
2019-05-19T11:18:19.057Z,22.40
2019-05-19T11:20:48.083Z,21.00
2019-05-19T11:23:17.090Z,21.00
2019-05-19T11:25:51.502Z,21.80
2019-05-19T11:28:17.165Z,21.20
2019-05-19T11:30:46.178Z,20.40
2019-05-19T11:33:15.225Z,20.00
2019-05-19T11:35:44.323Z,20.40
2019-05-19T11:38:13.385Z,20.00
2019-05-19T11:40:42.389Z,20.00
2019-05-19T11:43:11.435Z,20.00
2019-05-19T11:45:40.592Z,20.30
2019-05-19T11:48:09.653Z,20.20
2019-05-19T11:50:42.048Z,20.00
2019-05-19T11:53:09.650Z,20.00
2019-05-19T11:55:38.746Z,19.70
2019-05-19T11:58:07.804Z,19.80
2019-05-19T12:00:36.903Z,19.40
2019-05-19T12:03:05.977Z,19.60
2019-05-19T12:05:35.127Z,20.50
2019-05-19T12:08:04.227Z,20.10
2019-05-19T12:10:33.317Z,19.60
2019-05-19T12:13:02.230Z,19.60
2019-05-19T12:15:31.370Z,19.50
2019-05-19T12:18:00.384Z,19.80
2019-05-19T12:20:29.721Z,20.20
2019-05-19T12:22:58.724Z,20.60
2019-05-19T12:25:27.893Z,20.20
2019-05-19T12:27:56.937Z,20.00
2019-05-19T12:30:26.500Z,20.20
2019-05-19T12:32:59.070Z,20.20
2019-05-19T12:35:26.247Z,20.20
2019-05-19T12:37:55.373Z,20.70
2019-05-19T12:40:24.424Z,21.50
2019-05-19T12:42:53.644Z,21.50
2019-05-19T12:45:22.770Z,20.60
2019-05-19T12:47:52.620Z,20.40
2019-05-19T12:50:21.634Z,20.50
2019-05-19T12:52:50.648Z,21.00
2019-05-19T12:55:19.697Z,21.00
2019-05-19T12:57:48.738Z,21.10
2019-05-19T13:00:18.450Z,21.00
2019-05-19T13:02:47.476Z,20.90
2019-05-19T13:05:16.586Z,20.90
2019-05-19T13:07:45.710Z,21.30
2019-05-19T13:10:14.680Z,21.60
2019-05-19T13:12:43.810Z,21.20
2019-05-19T13:15:15.640Z,20.40
2019-05-19T13:17:44.806Z,20.00
2019-05-19T13:20:13.829Z,20.20
2019-05-19T13:22:42.848Z,20.30
2019-05-19T13:25:11.929Z,20.30
2019-05-19T13:27:40.992Z,20.20
2019-05-19T13:30:10.068Z,20.10
2019-05-19T13:32:39.416Z,20.00
2019-05-19T13:35:08.396Z,20.60
2019-05-19T13:37:37.477Z,21.30
2019-05-19T13:40:06.397Z,21.30
2019-05-19T13:42:35.492Z,20.70
2019-05-19T13:45:05.093Z,20.70
2019-05-19T13:47:34.209Z,20.70
2019-05-19T13:50:03.252Z,21.00
2019-05-19T13:52:32.183Z,21.10
2019-05-19T13:55:01.180Z,20.70
2019-05-19T13:57:30.152Z,20.40
2019-05-19T13:59:59.248Z,20.50
2019-05-19T14:02:28.230Z,20.40
2019-05-19T14:04:57.204Z,20.40
2019-05-19T14:07:26.342Z,20.40
2019-05-19T14:09:55.302Z,20.60
2019-05-19T14:12:24.331Z,20.50
2019-05-19T14:14:53.388Z,20.30
2019-05-19T14:17:22.875Z,20.20
2019-05-19T14:19:52.942Z,20.00
2019-05-19T14:22:23.330Z,20.30
2019-05-19T14:24:52.395Z,20.30
2019-05-19T14:27:29.211Z,20.30
2019-05-19T14:29:53.255Z,20.40
2019-05-19T14:32:23.515Z,20.30
2019-05-19T14:34:52.566Z,20.20
2019-05-19T14:37:21.697Z,20.20
2019-05-19T14:39:51.061Z,20.30
2019-05-19T14:42:37.989Z,20.60
2019-05-19T14:45:07.469Z,20.80
2019-05-19T14:47:36.747Z,20.80
2019-05-19T14:50:06.310Z,20.90
2019-05-19T14:52:35.402Z,20.70
2019-05-19T14:55:04.699Z,20.70
2019-05-19T14:57:44.444Z,20.60
2019-05-19T15:00:04.755Z,20.90
2019-05-19T15:02:33.869Z,20.90
2019-05-19T15:05:02.989Z,21.10
2019-05-19T15:07:32.118Z,21.00
2019-05-19T15:10:01.336Z,20.80
2019-05-19T15:12:30.360Z,20.50
2019-05-19T15:14:59.478Z,20.70
2019-05-19T15:17:28.613Z,20.90
2019-05-19T15:19:57.706Z,20.90
2019-05-19T15:22:26.907Z,20.60
2019-05-19T15:24:55.995Z,21.20
2019-05-19T15:27:25.180Z,21.50
2019-05-19T15:29:54.430Z,21.20
2019-05-19T15:32:23.550Z,20.90
2019-05-19T15:34:52.685Z,21.20
2019-05-19T15:37:21.755Z,21.00
2019-05-19T15:39:50.740Z,21.40
2019-05-19T15:42:19.819Z,21.50
2019-05-19T15:44:48.850Z,21.60
2019-05-19T15:47:18.079Z,21.60
2019-05-19T15:49:47.109Z,21.50
2019-05-19T15:52:16.243Z,21.40
2019-05-19T15:54:45.314Z,21.40
2019-05-19T15:57:14.361Z,21.60
2019-05-19T15:59:43.460Z,21.40
2019-05-19T16:02:12.456Z,21.00
2019-05-19T16:04:41.590Z,21.20
2019-05-19T16:07:10.685Z,21.00
2019-05-19T16:09:39.745Z,21.40
2019-05-19T16:12:08.847Z,21.70
2019-05-19T16:14:37.809Z,21.40
2019-05-19T16:17:06.906Z,20.80
2019-05-19T16:19:35.817Z,20.80
2019-05-19T16:22:04.982Z,20.60
2019-05-19T16:24:34.062Z,20.50
2019-05-19T16:27:03.160Z,20.40
2019-05-19T16:29:32.608Z,20.20
2019-05-19T16:32:01.681Z,19.70
2019-05-19T16:34:30.665Z,19.60
2019-05-19T16:36:59.784Z,19.50
2019-05-19T16:39:28.881Z,19.40
2019-05-19T16:41:58.074Z,19.30
2019-05-19T16:44:27.253Z,19.10
2019-05-19T16:46:56.350Z,19.10
2019-05-19T16:49:25.434Z,19.20
2019-05-19T16:51:54.654Z,19.30
2019-05-19T16:54:28.568Z,19.30
2019-05-19T16:56:57.653Z,19.30
2019-05-19T16:59:26.816Z,19.30
2019-05-19T17:01:55.873Z,18.90
2019-05-19T17:04:25.041Z,19.10
2019-05-19T17:06:54.085Z,19.30
2019-05-19T17:09:23.200Z,19.30
2019-05-19T17:11:52.725Z,19.10
2019-05-19T17:14:21.803Z,18.80
2019-05-19T17:16:50.809Z,18.50
2019-05-19T17:19:19.913Z,18.70
2019-05-19T17:21:49.070Z,18.80
2019-05-19T17:24:19.723Z,18.90
2019-05-19T17:26:48.984Z,19.00
2019-05-19T17:29:18.060Z,19.20
2019-05-19T17:31:47.345Z,19.30
2019-05-19T17:34:16.403Z,19.20
2019-05-19T17:36:45.503Z,19.20
2019-05-19T17:39:14.539Z,19.10
2019-05-19T17:41:44.701Z,19.10
2019-05-19T17:44:13.761Z,19.10
2019-05-19T17:46:42.946Z,19.20
2019-05-19T17:49:11.983Z,19.30
2019-05-19T17:51:41.140Z,19.40
2019-05-19T17:54:10.210Z,19.30
2019-05-19T17:56:39.549Z,19.20
2019-05-19T17:59:16.483Z,19.00
2019-05-19T18:01:42.390Z,18.90
2019-05-19T18:04:11.554Z,18.70
2019-05-19T18:06:40.542Z,18.80
2019-05-19T18:09:09.768Z,18.90
2019-05-19T18:11:38.875Z,18.90
2019-05-19T18:14:07.995Z,18.90
2019-05-19T18:16:37.202Z,18.80
2019-05-19T18:19:06.203Z,18.90
2019-05-19T18:21:35.380Z,18.80
2019-05-19T18:24:05.205Z,18.80
2019-05-19T18:26:34.288Z,18.70
2019-05-19T18:29:03.346Z,18.60
2019-05-19T18:31:32.548Z,18.70
2019-05-19T18:34:01.652Z,18.30
2019-05-19T18:36:30.833Z,18.30
2019-05-19T18:38:59.860Z,18.40
2019-05-19T18:41:28.963Z,18.40
2019-05-19T18:43:57.994Z,18.20
2019-05-19T18:46:27.256Z,18.40
2019-05-19T18:48:56.370Z,18.40
2019-05-19T18:51:25.564Z,18.40
2019-05-19T18:53:55.608Z,18.30
2019-05-19T18:56:24.838Z,18.30
2019-05-19T18:58:54.110Z,18.30
2019-05-19T19:01:23.209Z,18.20
2019-05-19T19:03:53.474Z,18.20
2019-05-19T19:06:22.691Z,18.10
2019-05-19T19:08:51.873Z,18.00
2019-05-19T19:11:21.025Z,17.90
2019-05-19T19:13:50.166Z,18.00
2019-05-19T19:16:19.435Z,17.90
2019-05-19T19:18:48.585Z,17.70
2019-05-19T19:21:17.618Z,17.50
2019-05-19T19:23:46.939Z,17.30
2019-05-19T19:26:16.132Z,17.30
2019-05-19T19:28:45.206Z,17.30
2019-05-19T19:31:14.325Z,17.30
2019-05-19T19:33:44.685Z,17.20
2019-05-19T19:36:13.785Z,17.20
2019-05-19T19:38:42.895Z,17.20
2019-05-19T19:41:11.979Z,17.30
2019-05-19T19:43:41.197Z,17.10
2019-05-19T19:46:10.507Z,16.90
2019-05-19T19:48:39.677Z,17.10
2019-05-19T19:51:08.786Z,17.00
2019-05-19T19:53:38.082Z,16.90
2019-05-19T19:56:07.103Z,16.90
2019-05-19T19:58:36.382Z,16.80
2019-05-19T20:01:06.691Z,16.80
2019-05-19T20:03:40.006Z,16.80
2019-05-19T20:06:07.864Z,16.70
2019-05-19T20:08:36.902Z,16.70
2019-05-19T20:11:06.047Z,16.60
2019-05-19T20:13:35.113Z,16.60
2019-05-19T20:16:04.274Z,16.60
2019-05-19T20:18:33.387Z,16.40
2019-05-19T20:21:02.599Z,16.40
2019-05-19T20:23:31.598Z,16.30
2019-05-19T20:26:00.668Z,16.20
2019-05-19T20:28:29.697Z,16.30
2019-05-19T20:30:59.052Z,16.10
2019-05-19T20:33:28.090Z,16.00
2019-05-19T20:35:57.273Z,15.80
2019-05-19T20:38:26.414Z,15.50
2019-05-19T20:40:55.581Z,15.50
2019-05-19T20:43:24.539Z,15.40
2019-05-19T20:45:53.618Z,15.30
2019-05-19T20:48:22.716Z,15.50
2019-05-19T20:50:51.855Z,15.40
2019-05-19T20:53:21.040Z,15.30
2019-05-19T20:55:50.258Z,15.30
2019-05-19T20:58:19.423Z,15.10
2019-05-19T21:00:51.500Z,15.00
2019-05-19T21:03:19.368Z,14.80
2019-05-19T21:05:48.461Z,14.50
2019-05-19T21:08:17.549Z,14.40
2019-05-19T21:10:47.061Z,14.10
2019-05-19T21:13:16.114Z,14.10
2019-05-19T21:15:45.145Z,14.10
2019-05-19T21:18:14.383Z,14.10
2019-05-19T21:20:43.374Z,14.00
2019-05-19T21:23:12.470Z,14.00
2019-05-19T21:25:41.517Z,14.10
2019-05-19T21:28:10.655Z,14.20
2019-05-19T21:30:39.693Z,14.30
2019-05-19T21:33:08.660Z,14.30
2019-05-19T21:35:37.771Z,14.30
2019-05-19T21:38:06.829Z,14.30
2019-05-19T21:40:35.758Z,14.30
2019-05-19T21:43:04.790Z,14.40
2019-05-19T21:45:33.858Z,14.40
2019-05-19T21:48:02.970Z,14.50
2019-05-19T21:50:32.108Z,14.40
2019-05-19T21:53:01.140Z,14.30
2019-05-19T21:55:30.303Z,14.30
2019-05-19T21:58:01.026Z,14.20
2019-05-19T22:00:31.257Z,14.10
2019-05-19T22:03:00.374Z,14.00
2019-05-19T22:05:29.385Z,13.90
2019-05-19T22:08:04.428Z,13.90
2019-05-19T22:10:33.619Z,13.80
2019-05-19T22:13:02.637Z,13.70
2019-05-19T22:15:31.862Z,13.70
2019-05-19T22:18:00.774Z,13.50
2019-05-19T22:20:29.811Z,13.50
2019-05-19T22:22:58.701Z,13.50
2019-05-19T22:25:27.608Z,13.60
2019-05-19T22:27:56.606Z,13.60
2019-05-19T22:30:25.570Z,13.60
2019-05-19T22:32:54.589Z,13.50
2019-05-19T22:35:23.901Z,13.60
2019-05-19T22:37:52.926Z,13.50
2019-05-19T22:40:21.983Z,13.30
2019-05-19T22:42:50.963Z,13.30
2019-05-19T22:45:19.999Z,13.30
2019-05-19T22:47:48.970Z,13.20
2019-05-19T22:50:17.938Z,13.10
2019-05-19T22:52:47.124Z,13.10
2019-05-19T22:55:16.144Z,13.20
2019-05-19T22:57:45.317Z,13.20
2019-05-19T23:00:14.553Z,13.20
2019-05-19T23:02:43.568Z,13.30
2019-05-19T23:05:12.632Z,13.20
2019-05-19T23:07:41.677Z,13.10
2019-05-19T23:10:10.694Z,13.10
2019-05-19T23:12:40.013Z,13.10
2019-05-19T23:15:09.046Z,13.10
2019-05-19T23:17:38.145Z,13.10
2019-05-19T23:20:07.148Z,13.10
2019-05-19T23:22:36.045Z,13.10
2019-05-19T23:25:05.338Z,13.10
2019-05-19T23:27:34.314Z,13.10
2019-05-19T23:30:03.451Z,12.90
2019-05-19T23:32:32.503Z,13.00
2019-05-19T23:35:01.526Z,12.90
2019-05-19T23:37:30.536Z,12.90
2019-05-19T23:39:59.542Z,13.00
2019-05-19T23:42:28.486Z,13.00
2019-05-19T23:44:57.705Z,13.00
2019-05-19T23:47:26.628Z,13.10
2019-05-19T23:49:55.633Z,13.10
2019-05-19T23:52:24.658Z,13.00
2019-05-19T23:54:53.571Z,13.00
2019-05-19T23:57:22.430Z,13.00
2019-05-19T23:59:51.286Z,12.90
